sensor_id;sensor_type;location;lat;lon;timestamp;P1;durP1;ratioP1;P2;durP2;ratioP2
63801;SDS011;49949;43.060;25.624;2024-01-30T00:02:21;32.20;;;14.48;;
63801;SDS011;49949;43.060;25.624;2024-01-30T00:04:46;28.25;;;14.88;;
63801;SDS011;49949;43.060;25.624;2024-01-30T00:07:12;32.08;;;13.70;;
63801;SDS011;49949;43.060;25.624;2024-01-30T00:09:38;28.90;;;14.43;;
63801;SDS011;49949;43.060;25.624;2024-01-30T00:12:07;30.48;;;14.95;;
63801;SDS011;49949;43.060;25.624;2024-01-30T00:14:32;28.58;;;13.65;;
63801;SDS011;49949;43.060;25.624;2024-01-30T00:16:58;23.52;;;13.43;;
63801;SDS011;49949;43.060;25.624;2024-01-30T00:19:24;27.67;;;13.07;;
63801;SDS011;49949;43.060;25.624;2024-01-30T00:21:49;23.08;;;13.20;;
63801;SDS011;49949;43.060;25.624;2024-01-30T00:24:15;29.20;;;14.70;;
63801;SDS011;49949;43.060;25.624;2024-01-30T00:26:41;25.45;;;14.13;;
63801;SDS011;49949;43.060;25.624;2024-01-30T00:29:06;30.83;;;14.27;;
63801;SDS011;49949;43.060;25.624;2024-01-30T00:31:32;30.58;;;14.07;;
63801;SDS011;49949;43.060;25.624;2024-01-30T00:33:58;29.88;;;13.38;;
63801;SDS011;49949;43.060;25.624;2024-01-30T00:36:23;25.90;;;13.13;;
63801;SDS011;49949;43.060;25.624;2024-01-30T00:38:49;26.65;;;13.48;;
63801;SDS011;49949;43.060;25.624;2024-01-30T00:41:16;26.70;;;13.48;;
63801;SDS011;49949;43.060;25.624;2024-01-30T00:43:42;26.85;;;13.68;;
63801;SDS011;49949;43.060;25.624;2024-01-30T00:46:08;25.55;;;13.02;;
63801;SDS011;49949;43.060;25.624;2024-01-30T00:48:34;28.98;;;13.93;;
63801;SDS011;49949;43.060;25.624;2024-01-30T00:50:59;30.10;;;15.60;;
63801;SDS011;49949;43.060;25.624;2024-01-30T00:53:26;26.40;;;14.07;;
63801;SDS011;49949;43.060;25.624;2024-01-30T00:55:51;26.42;;;13.98;;
63801;SDS011;49949;43.060;25.624;2024-01-30T00:58:17;32.42;;;14.10;;
63801;SDS011;49949;43.060;25.624;2024-01-30T01:00:44;29.25;;;14.50;;
63801;SDS011;49949;43.060;25.624;2024-01-30T01:03:10;25.83;;;13.75;;
63801;SDS011;49949;43.060;25.624;2024-01-30T01:05:35;28.20;;;13.95;;
63801;SDS011;49949;43.060;25.624;2024-01-30T01:08:01;29.27;;;14.82;;
63801;SDS011;49949;43.060;25.624;2024-01-30T01:10:27;30.77;;;14.20;;
63801;SDS011;49949;43.060;25.624;2024-01-30T01:12:53;26.45;;;13.63;;
63801;SDS011;49949;43.060;25.624;2024-01-30T01:15:19;27.20;;;13.18;;
63801;SDS011;49949;43.060;25.624;2024-01-30T01:17:45;31.20;;;14.80;;
63801;SDS011;49949;43.060;25.624;2024-01-30T01:20:11;27.73;;;13.95;;
63801;SDS011;49949;43.060;25.624;2024-01-30T01:22:37;26.77;;;13.40;;
63801;SDS011;49949;43.060;25.624;2024-01-30T01:25:04;28.95;;;13.65;;
63801;SDS011;49949;43.060;25.624;2024-01-30T01:27:33;23.73;;;12.77;;
63801;SDS011;49949;43.060;25.624;2024-01-30T01:29:59;29.50;;;13.73;;
63801;SDS011;49949;43.060;25.624;2024-01-30T01:32:25;24.45;;;12.95;;
63801;SDS011;49949;43.060;25.624;2024-01-30T01:34:51;27.45;;;12.95;;
63801;SDS011;49949;43.060;25.624;2024-01-30T01:37:17;26.92;;;13.20;;
63801;SDS011;49949;43.060;25.624;2024-01-30T01:39:43;27.92;;;13.98;;
63801;SDS011;49949;43.060;25.624;2024-01-30T01:42:08;27.20;;;13.57;;
63801;SDS011;49949;43.060;25.624;2024-01-30T01:44:34;29.50;;;13.95;;
63801;SDS011;49949;43.060;25.624;2024-01-30T01:47:00;23.73;;;12.63;;
63801;SDS011;49949;43.060;25.624;2024-01-30T01:49:26;24.52;;;12.20;;
63801;SDS011;49949;43.060;25.624;2024-01-30T01:51:54;27.02;;;12.80;;
63801;SDS011;49949;43.060;25.624;2024-01-30T01:54:23;25.75;;;12.60;;
63801;SDS011;49949;43.060;25.624;2024-01-30T01:56:51;27.73;;;13.48;;
63801;SDS011;49949;43.060;25.624;2024-01-30T01:59:18;27.45;;;13.68;;
63801;SDS011;49949;43.060;25.624;2024-01-30T02:01:44;25.33;;;13.05;;
63801;SDS011;49949;43.060;25.624;2024-01-30T02:04:14;24.45;;;12.27;;
63801;SDS011;49949;43.060;25.624;2024-01-30T02:06:40;29.70;;;13.52;;
63801;SDS011;49949;43.060;25.624;2024-01-30T02:09:06;25.75;;;13.25;;
63801;SDS011;49949;43.060;25.624;2024-01-30T02:11:32;25.90;;;12.77;;
63801;SDS011;49949;43.060;25.624;2024-01-30T02:14:01;23.45;;;12.75;;
63801;SDS011;49949;43.060;25.624;2024-01-30T02:16:31;24.20;;;12.10;;
63801;SDS011;49949;43.060;25.624;2024-01-30T02:18:57;29.23;;;12.13;;
63801;SDS011;49949;43.060;25.624;2024-01-30T02:21:23;24.38;;;11.68;;
63801;SDS011;49949;43.060;25.624;2024-01-30T02:23:49;23.42;;;12.25;;
63801;SDS011;49949;43.060;25.624;2024-01-30T02:26:17;24.67;;;11.18;;
63801;SDS011;49949;43.060;25.624;2024-01-30T02:28:43;21.98;;;11.90;;
63801;SDS011;49949;43.060;25.624;2024-01-30T02:31:08;18.83;;;10.93;;
63801;SDS011;49949;43.060;25.624;2024-01-30T02:33:34;22.67;;;12.25;;
63801;SDS011;49949;43.060;25.624;2024-01-30T02:36:00;23.70;;;12.20;;
63801;SDS011;49949;43.060;25.624;2024-01-30T02:38:26;22.38;;;12.18;;
63801;SDS011;49949;43.060;25.624;2024-01-30T02:40:52;23.45;;;11.95;;
63801;SDS011;49949;43.060;25.624;2024-01-30T02:43:18;25.90;;;11.80;;
63801;SDS011;49949;43.060;25.624;2024-01-30T02:45:44;22.70;;;12.38;;
63801;SDS011;49949;43.060;25.624;2024-01-30T02:48:09;23.05;;;12.07;;
63801;SDS011;49949;43.060;25.624;2024-01-30T02:50:35;23.05;;;12.82;;
63801;SDS011;49949;43.060;25.624;2024-01-30T02:53:01;27.85;;;12.93;;
63801;SDS011;49949;43.060;25.624;2024-01-30T02:55:26;24.30;;;12.23;;
63801;SDS011;49949;43.060;25.624;2024-01-30T02:57:52;23.20;;;12.88;;
63801;SDS011;49949;43.060;25.624;2024-01-30T03:00:20;24.52;;;12.82;;
63801;SDS011;49949;43.060;25.624;2024-01-30T03:02:45;25.48;;;12.18;;
63801;SDS011;49949;43.060;25.624;2024-01-30T03:05:11;24.52;;;12.35;;
63801;SDS011;49949;43.060;25.624;2024-01-30T03:07:37;23.70;;;12.10;;
63801;SDS011;49949;43.060;25.624;2024-01-30T03:10:05;29.45;;;13.35;;
63801;SDS011;49949;43.060;25.624;2024-01-30T03:12:32;27.85;;;13.27;;
63801;SDS011;49949;43.060;25.624;2024-01-30T03:14:58;25.05;;;11.88;;
63801;SDS011;49949;43.060;25.624;2024-01-30T03:17:23;29.15;;;12.30;;
63801;SDS011;49949;43.060;25.624;2024-01-30T03:19:49;25.23;;;12.93;;
63801;SDS011;49949;43.060;25.624;2024-01-30T03:22:15;24.48;;;12.27;;
63801;SDS011;49949;43.060;25.624;2024-01-30T03:24:41;26.50;;;13.13;;
63801;SDS011;49949;43.060;25.624;2024-01-30T03:27:07;26.42;;;12.48;;
63801;SDS011;49949;43.060;25.624;2024-01-30T03:29:33;25.13;;;13.48;;
63801;SDS011;49949;43.060;25.624;2024-01-30T03:31:59;25.38;;;12.45;;
63801;SDS011;49949;43.060;25.624;2024-01-30T03:34:24;25.83;;;12.77;;
63801;SDS011;49949;43.060;25.624;2024-01-30T03:36:50;23.00;;;12.38;;
63801;SDS011;49949;43.060;25.624;2024-01-30T03:39:16;25.63;;;12.30;;
63801;SDS011;49949;43.060;25.624;2024-01-30T03:41:42;25.65;;;12.15;;
63801;SDS011;49949;43.060;25.624;2024-01-30T03:44:09;23.05;;;12.32;;
63801;SDS011;49949;43.060;25.624;2024-01-30T03:46:35;28.80;;;13.18;;
63801;SDS011;49949;43.060;25.624;2024-01-30T03:49:01;24.67;;;12.77;;
63801;SDS011;49949;43.060;25.624;2024-01-30T03:51:26;28.50;;;13.90;;
63801;SDS011;49949;43.060;25.624;2024-01-30T03:53:52;25.45;;;13.40;;
63801;SDS011;49949;43.060;25.624;2024-01-30T03:56:17;33.22;;;14.15;;
63801;SDS011;49949;43.060;25.624;2024-01-30T03:58:43;26.58;;;13.45;;
63801;SDS011;49949;43.060;25.624;2024-01-30T04:01:12;26.35;;;12.57;;
63801;SDS011;49949;43.060;25.624;2024-01-30T04:03:39;24.48;;;12.90;;
63801;SDS011;49949;43.060;25.624;2024-01-30T04:06:05;24.48;;;12.98;;
63801;SDS011;49949;43.060;25.624;2024-01-30T04:08:31;25.58;;;13.23;;
63801;SDS011;49949;43.060;25.624;2024-01-30T04:10:57;23.98;;;12.75;;
63801;SDS011;49949;43.060;25.624;2024-01-30T04:13:23;24.77;;;12.85;;
63801;SDS011;49949;43.060;25.624;2024-01-30T04:15:48;26.58;;;12.57;;
63801;SDS011;49949;43.060;25.624;2024-01-30T04:18:14;40.08;;;13.80;;
63801;SDS011;49949;43.060;25.624;2024-01-30T04:20:40;36.80;;;13.25;;
63801;SDS011;49949;43.060;25.624;2024-01-30T04:23:05;25.58;;;12.68;;
63801;SDS011;49949;43.060;25.624;2024-01-30T04:25:31;28.30;;;12.18;;
63801;SDS011;49949;43.060;25.624;2024-01-30T04:27:57;25.63;;;11.85;;
63801;SDS011;49949;43.060;25.624;2024-01-30T04:30:22;24.83;;;12.93;;
63801;SDS011;49949;43.060;25.624;2024-01-30T04:32:48;25.95;;;12.27;;
63801;SDS011;49949;43.060;25.624;2024-01-30T04:35:14;27.30;;;12.82;;
63801;SDS011;49949;43.060;25.624;2024-01-30T04:37:39;29.55;;;14.35;;
63801;SDS011;49949;43.060;25.624;2024-01-30T04:40:05;44.17;;;20.17;;
63801;SDS011;49949;43.060;25.624;2024-01-30T04:42:33;62.63;;;28.63;;
63801;SDS011;49949;43.060;25.624;2024-01-30T04:44:59;27.38;;;12.73;;
63801;SDS011;49949;43.060;25.624;2024-01-30T04:47:24;27.20;;;14.30;;
63801;SDS011;49949;43.060;25.624;2024-01-30T04:49:51;45.78;;;13.27;;
63801;SDS011;49949;43.060;25.624;2024-01-30T04:52:17;28.35;;;13.05;;
63801;SDS011;49949;43.060;25.624;2024-01-30T04:54:42;29.35;;;12.63;;
63801;SDS011;49949;43.060;25.624;2024-01-30T04:57:08;26.55;;;12.35;;
63801;SDS011;49949;43.060;25.624;2024-01-30T04:59:37;24.70;;;12.38;;
63801;SDS011;49949;43.060;25.624;2024-01-30T05:02:02;42.08;;;13.38;;
63801;SDS011;49949;43.060;25.624;2024-01-30T05:04:28;32.90;;;12.15;;
63801;SDS011;49949;43.060;25.624;2024-01-30T05:06:54;25.50;;;11.90;;
63801;SDS011;49949;43.060;25.624;2024-01-30T05:09:19;24.85;;;12.63;;
63801;SDS011;49949;43.060;25.624;2024-01-30T05:11:45;26.55;;;13.35;;
63801;SDS011;49949;43.060;25.624;2024-01-30T05:14:11;32.38;;;13.45;;
63801;SDS011;49949;43.060;25.624;2024-01-30T05:16:37;29.27;;;12.63;;
63801;SDS011;49949;43.060;25.624;2024-01-30T05:19:02;30.77;;;13.70;;
63801;SDS011;49949;43.060;25.624;2024-01-30T05:21:28;29.45;;;13.40;;
63801;SDS011;49949;43.060;25.624;2024-01-30T05:23:54;34.75;;;13.48;;
63801;SDS011;49949;43.060;25.624;2024-01-30T05:26:19;31.75;;;13.50;;
63801;SDS011;49949;43.060;25.624;2024-01-30T05:28:47;36.20;;;14.55;;
63801;SDS011;49949;43.060;25.624;2024-01-30T05:31:13;31.15;;;13.10;;
63801;SDS011;49949;43.060;25.624;2024-01-30T05:33:39;26.80;;;14.23;;
63801;SDS011;49949;43.060;25.624;2024-01-30T05:36:05;29.70;;;13.38;;
63801;SDS011;49949;43.060;25.624;2024-01-30T05:38:31;38.17;;;15.18;;
63801;SDS011;49949;43.060;25.624;2024-01-30T05:40:57;31.83;;;14.60;;
63801;SDS011;49949;43.060;25.624;2024-01-30T05:43:23;32.47;;;14.48;;
63801;SDS011;49949;43.060;25.624;2024-01-30T05:45:49;34.95;;;14.07;;
63801;SDS011;49949;43.060;25.624;2024-01-30T05:48:15;60.97;;;15.27;;
63801;SDS011;49949;43.060;25.624;2024-01-30T05:50:41;38.72;;;13.20;;
63801;SDS011;49949;43.060;25.624;2024-01-30T05:53:06;123.15;;;17.60;;
63801;SDS011;49949;43.060;25.624;2024-01-30T05:55:32;50.15;;;14.30;;
63801;SDS011;49949;43.060;25.624;2024-01-30T05:57:58;28.83;;;14.00;;
63801;SDS011;49949;43.060;25.624;2024-01-30T06:00:23;36.17;;;14.23;;
63801;SDS011;49949;43.060;25.624;2024-01-30T06:02:49;31.10;;;13.70;;
63801;SDS011;49949;43.060;25.624;2024-01-30T06:05:15;36.40;;;13.73;;
63801;SDS011;49949;43.060;25.624;2024-01-30T06:07:40;41.92;;;14.25;;
63801;SDS011;49949;43.060;25.624;2024-01-30T06:10:06;38.90;;;14.82;;
63801;SDS011;49949;43.060;25.624;2024-01-30T06:12:33;29.77;;;13.93;;
63801;SDS011;49949;43.060;25.624;2024-01-30T06:15:00;41.65;;;14.77;;
63801;SDS011;49949;43.060;25.624;2024-01-30T06:17:26;24.17;;;12.70;;
63801;SDS011;49949;43.060;25.624;2024-01-30T06:19:51;36.65;;;13.40;;
63801;SDS011;49949;43.060;25.624;2024-01-30T06:22:17;31.50;;;13.18;;
63801;SDS011;49949;43.060;25.624;2024-01-30T06:24:43;28.70;;;13.07;;
63801;SDS011;49949;43.060;25.624;2024-01-30T06:27:10;63.90;;;14.38;;
63801;SDS011;49949;43.060;25.624;2024-01-30T06:29:36;29.15;;;13.43;;
63801;SDS011;49949;43.060;25.624;2024-01-30T06:32:01;24.23;;;13.55;;
63801;SDS011;49949;43.060;25.624;2024-01-30T06:34:27;25.98;;;13.43;;
63801;SDS011;49949;43.060;25.624;2024-01-30T06:36:53;29.25;;;12.98;;
63801;SDS011;49949;43.060;25.624;2024-01-30T06:39:18;26.30;;;13.10;;
63801;SDS011;49949;43.060;25.624;2024-01-30T06:41:44;24.15;;;12.27;;
63801;SDS011;49949;43.060;25.624;2024-01-30T06:44:11;31.88;;;12.45;;
63801;SDS011;49949;43.060;25.624;2024-01-30T06:46:38;29.70;;;13.23;;
63801;SDS011;49949;43.060;25.624;2024-01-30T06:49:03;27.42;;;12.90;;
63801;SDS011;49949;43.060;25.624;2024-01-30T06:51:29;26.02;;;13.40;;
63801;SDS011;49949;43.060;25.624;2024-01-30T06:53:55;27.35;;;13.55;;
63801;SDS011;49949;43.060;25.624;2024-01-30T06:56:21;43.75;;;15.32;;
63801;SDS011;49949;43.060;25.624;2024-01-30T06:58:49;27.00;;;14.32;;
63801;SDS011;49949;43.060;25.624;2024-01-30T07:01:15;24.30;;;12.20;;
63801;SDS011;49949;43.060;25.624;2024-01-30T07:03:41;27.85;;;12.35;;
63801;SDS011;49949;43.060;25.624;2024-01-30T07:06:08;24.13;;;11.55;;
63801;SDS011;49949;43.060;25.624;2024-01-30T07:08:35;28.42;;;12.65;;
63801;SDS011;49949;43.060;25.624;2024-01-30T07:11:02;27.35;;;13.70;;
63801;SDS011;49949;43.060;25.624;2024-01-30T07:13:28;102.38;;;15.85;;
63801;SDS011;49949;43.060;25.624;2024-01-30T07:15:54;22.90;;;11.68;;
63801;SDS011;49949;43.060;25.624;2024-01-30T07:18:19;26.98;;;12.60;;
63801;SDS011;49949;43.060;25.624;2024-01-30T07:20:45;43.92;;;12.52;;
63801;SDS011;49949;43.060;25.624;2024-01-30T07:23:12;32.05;;;13.48;;
63801;SDS011;49949;43.060;25.624;2024-01-30T07:25:41;27.83;;;13.00;;
63801;SDS011;49949;43.060;25.624;2024-01-30T07:28:07;31.05;;;12.73;;
63801;SDS011;49949;43.060;25.624;2024-01-30T07:30:37;44.63;;;13.88;;
63801;SDS011;49949;43.060;25.624;2024-01-30T07:33:03;29.48;;;13.05;;
63801;SDS011;49949;43.060;25.624;2024-01-30T07:35:29;26.65;;;12.13;;
63801;SDS011;49949;43.060;25.624;2024-01-30T07:37:55;22.90;;;12.07;;
63801;SDS011;49949;43.060;25.624;2024-01-30T07:40:22;24.50;;;12.57;;
63801;SDS011;49949;43.060;25.624;2024-01-30T07:42:48;31.00;;;11.65;;
63801;SDS011;49949;43.060;25.624;2024-01-30T07:45:13;35.67;;;12.88;;
63801;SDS011;49949;43.060;25.624;2024-01-30T07:47:39;34.25;;;12.95;;
63801;SDS011;49949;43.060;25.624;2024-01-30T07:50:05;26.92;;;12.27;;
63801;SDS011;49949;43.060;25.624;2024-01-30T07:52:31;53.95;;;12.88;;
63801;SDS011;49949;43.060;25.624;2024-01-30T07:54:57;31.88;;;13.43;;
63801;SDS011;49949;43.060;25.624;2024-01-30T07:57:22;32.47;;;12.73;;
63801;SDS011;49949;43.060;25.624;2024-01-30T07:59:48;74.35;;;15.57;;
63801;SDS011;49949;43.060;25.624;2024-01-30T08:02:14;55.30;;;14.70;;
63801;SDS011;49949;43.060;25.624;2024-01-30T08:04:39;43.25;;;17.58;;
63801;SDS011;49949;43.060;25.624;2024-01-30T08:07:05;51.58;;;16.33;;
63801;SDS011;49949;43.060;25.624;2024-01-30T08:09:31;63.78;;;16.42;;
63801;SDS011;49949;43.060;25.624;2024-01-30T08:11:56;56.47;;;15.65;;
63801;SDS011;49949;43.060;25.624;2024-01-30T08:14:22;37.10;;;13.25;;
63801;SDS011;49949;43.060;25.624;2024-01-30T08:16:48;21.70;;;12.25;;
63801;SDS011;49949;43.060;25.624;2024-01-30T08:19:16;27.73;;;12.55;;
63801;SDS011;49949;43.060;25.624;2024-01-30T08:21:42;24.73;;;11.60;;
63801;SDS011;49949;43.060;25.624;2024-01-30T08:24:08;23.38;;;11.77;;
63801;SDS011;49949;43.060;25.624;2024-01-30T08:26:34;25.63;;;12.35;;
63801;SDS011;49949;43.060;25.624;2024-01-30T08:29:00;25.05;;;12.35;;
63801;SDS011;49949;43.060;25.624;2024-01-30T08:31:26;27.05;;;12.43;;
63801;SDS011;49949;43.060;25.624;2024-01-30T08:33:52;36.70;;;13.30;;
63801;SDS011;49949;43.060;25.624;2024-01-30T08:36:18;20.75;;;11.82;;
63801;SDS011;49949;43.060;25.624;2024-01-30T08:38:44;26.77;;;12.13;;
63801;SDS011;49949;43.060;25.624;2024-01-30T08:41:09;26.90;;;12.60;;
63801;SDS011;49949;43.060;25.624;2024-01-30T08:43:35;20.98;;;11.95;;
63801;SDS011;49949;43.060;25.624;2024-01-30T08:46:01;22.15;;;12.15;;
63801;SDS011;49949;43.060;25.624;2024-01-30T08:48:27;28.92;;;12.27;;
63801;SDS011;49949;43.060;25.624;2024-01-30T08:50:53;24.83;;;11.52;;
63801;SDS011;49949;43.060;25.624;2024-01-30T08:53:19;25.63;;;12.23;;
63801;SDS011;49949;43.060;25.624;2024-01-30T08:55:44;21.45;;;11.80;;
63801;SDS011;49949;43.060;25.624;2024-01-30T08:58:10;20.88;;;10.88;;
63801;SDS011;49949;43.060;25.624;2024-01-30T09:00:36;22.90;;;11.82;;
63801;SDS011;49949;43.060;25.624;2024-01-30T09:03:02;19.83;;;11.02;;
63801;SDS011;49949;43.060;25.624;2024-01-30T09:05:29;26.08;;;11.85;;
63801;SDS011;49949;43.060;25.624;2024-01-30T09:07:54;21.20;;;9.30;;
63801;SDS011;49949;43.060;25.624;2024-01-30T09:10:20;20.10;;;10.90;;
63801;SDS011;49949;43.060;25.624;2024-01-30T09:12:47;23.90;;;11.60;;
63801;SDS011;49949;43.060;25.624;2024-01-30T09:15:13;21.20;;;10.57;;
63801;SDS011;49949;43.060;25.624;2024-01-30T09:17:39;21.65;;;11.30;;
63801;SDS011;49949;43.060;25.624;2024-01-30T09:20:04;20.30;;;11.38;;
63801;SDS011;49949;43.060;25.624;2024-01-30T09:22:31;28.20;;;11.10;;
63801;SDS011;49949;43.060;25.624;2024-01-30T09:24:57;23.08;;;10.38;;
63801;SDS011;49949;43.060;25.624;2024-01-30T09:27:22;23.60;;;10.82;;
63801;SDS011;49949;43.060;25.624;2024-01-30T09:29:48;22.42;;;11.18;;
63801;SDS011;49949;43.060;25.624;2024-01-30T09:32:14;24.67;;;12.27;;
63801;SDS011;49949;43.060;25.624;2024-01-30T09:34:40;20.00;;;11.30;;
63801;SDS011;49949;43.060;25.624;2024-01-30T09:37:07;24.60;;;10.93;;
63801;SDS011;49949;43.060;25.624;2024-01-30T09:39:33;18.75;;;10.90;;
63801;SDS011;49949;43.060;25.624;2024-01-30T09:44:35;23.02;;;11.70;;
63801;SDS011;49949;43.060;25.624;2024-01-30T09:47:03;24.73;;;11.85;;
63801;SDS011;49949;43.060;25.624;2024-01-30T09:49:34;24.05;;;6.00;;
63801;SDS011;49949;43.060;25.624;2024-01-30T09:52:01;24.20;;;11.45;;
63801;SDS011;49949;43.060;25.624;2024-01-30T09:54:36;19.95;;;9.13;;
63801;SDS011;49949;43.060;25.624;2024-01-30T09:57:03;20.38;;;11.00;;
63801;SDS011;49949;43.060;25.624;2024-01-30T09:59:29;21.88;;;11.85;;
63801;SDS011;49949;43.060;25.624;2024-01-30T10:01:55;24.90;;;11.32;;
63801;SDS011;49949;43.060;25.624;2024-01-30T10:04:22;14.55;;;7.32;;
63801;SDS011;49949;43.060;25.624;2024-01-30T10:06:47;21.25;;;10.80;;
63801;SDS011;49949;43.060;25.624;2024-01-30T10:09:13;12.73;;;5.68;;
63801;SDS011;49949;43.060;25.624;2024-01-30T10:11:39;19.70;;;9.02;;
63801;SDS011;49949;43.060;25.624;2024-01-30T10:14:05;24.17;;;8.68;;
63801;SDS011;49949;43.060;25.624;2024-01-30T10:16:30;19.05;;;10.20;;
63801;SDS011;49949;43.060;25.624;2024-01-30T10:18:56;18.60;;;9.73;;
63801;SDS011;49949;43.060;25.624;2024-01-30T10:21:22;41.28;;;13.38;;
63801;SDS011;49949;43.060;25.624;2024-01-30T10:23:49;20.67;;;10.90;;
63801;SDS011;49949;43.060;25.624;2024-01-30T10:26:15;18.65;;;10.50;;
63801;SDS011;49949;43.060;25.624;2024-01-30T10:28:42;142.40;;;17.40;;
63801;SDS011;49949;43.060;25.624;2024-01-30T10:31:08;20.92;;;10.30;;
63801;SDS011;49949;43.060;25.624;2024-01-30T10:33:34;75.88;;;13.35;;
63801;SDS011;49949;43.060;25.624;2024-01-30T10:36:03;33.58;;;10.88;;
63801;SDS011;49949;43.060;25.624;2024-01-30T10:38:30;28.08;;;10.85;;
63801;SDS011;49949;43.060;25.624;2024-01-30T10:40:57;34.80;;;11.63;;
63801;SDS011;49949;43.060;25.624;2024-01-30T10:43:24;21.67;;;9.48;;
63801;SDS011;49949;43.060;25.624;2024-01-30T10:45:57;20.58;;;9.93;;
63801;SDS011;49949;43.060;25.624;2024-01-30T10:48:28;23.15;;;10.32;;
63801;SDS011;49949;43.060;25.624;2024-01-30T10:50:57;25.98;;;10.38;;
63801;SDS011;49949;43.060;25.624;2024-01-30T10:53:25;181.50;;;17.08;;
63801;SDS011;49949;43.060;25.624;2024-01-30T10:55:52;33.00;;;11.02;;
63801;SDS011;49949;43.060;25.624;2024-01-30T10:58:20;21.92;;;10.63;;
63801;SDS011;49949;43.060;25.624;2024-01-30T11:00:46;32.40;;;9.48;;
63801;SDS011;49949;43.060;25.624;2024-01-30T11:03:14;29.73;;;10.10;;
63801;SDS011;49949;43.060;25.624;2024-01-30T11:05:40;86.07;;;13.48;;
63801;SDS011;49949;43.060;25.624;2024-01-30T11:08:22;21.50;;;10.27;;
63801;SDS011;49949;43.060;25.624;2024-01-30T11:10:49;23.23;;;9.50;;
63801;SDS011;49949;43.060;25.624;2024-01-30T11:13:15;20.23;;;9.70;;
63801;SDS011;49949;43.060;25.624;2024-01-30T11:15:41;17.17;;;8.93;;
63801;SDS011;49949;43.060;25.624;2024-01-30T11:18:06;28.70;;;9.73;;
63801;SDS011;49949;43.060;25.624;2024-01-30T11:20:32;21.50;;;10.43;;
63801;SDS011;49949;43.060;25.624;2024-01-30T11:23:00;14.75;;;8.75;;
63801;SDS011;49949;43.060;25.624;2024-01-30T11:25:31;21.73;;;8.88;;
63801;SDS011;49949;43.060;25.624;2024-01-30T11:27:57;131.43;;;13.60;;
63801;SDS011;49949;43.060;25.624;2024-01-30T11:30:41;17.10;;;9.05;;
63801;SDS011;49949;43.060;25.624;2024-01-30T11:33:11;30.52;;;8.93;;
63801;SDS011;49949;43.060;25.624;2024-01-30T11:35:38;14.73;;;7.22;;
63801;SDS011;49949;43.060;25.624;2024-01-30T11:38:08;17.88;;;7.88;;
63801;SDS011;49949;43.060;25.624;2024-01-30T11:40:36;19.80;;;9.45;;
63801;SDS011;49949;43.060;25.624;2024-01-30T11:43:04;16.88;;;7.63;;
63801;SDS011;49949;43.060;25.624;2024-01-30T11:45:31;17.00;;;9.10;;
63801;SDS011;49949;43.060;25.624;2024-01-30T11:47:57;21.58;;;9.77;;
63801;SDS011;49949;43.060;25.624;2024-01-30T11:50:25;14.55;;;7.45;;
63801;SDS011;49949;43.060;25.624;2024-01-30T11:52:51;16.58;;;9.15;;
63801;SDS011;49949;43.060;25.624;2024-01-30T11:55:17;20.25;;;9.35;;
63801;SDS011;49949;43.060;25.624;2024-01-30T11:57:44;14.75;;;7.53;;
63801;SDS011;49949;43.060;25.624;2024-01-30T12:00:16;19.17;;;8.27;;
63801;SDS011;49949;43.060;25.624;2024-01-30T12:02:53;9.45;;;5.20;;
63801;SDS011;49949;43.060;25.624;2024-01-30T12:05:23;16.75;;;6.97;;
63801;SDS011;49949;43.060;25.624;2024-01-30T12:07:50;21.13;;;9.68;;
63801;SDS011;49949;43.060;25.624;2024-01-30T12:10:16;36.50;;;10.25;;
63801;SDS011;49949;43.060;25.624;2024-01-30T12:12:44;68.40;;;17.58;;
63801;SDS011;49949;43.060;25.624;2024-01-30T12:17:40;35.90;;;9.70;;
63801;SDS011;49949;43.060;25.624;2024-01-30T12:20:10;24.65;;;8.13;;
63801;SDS011;49949;43.060;25.624;2024-01-30T12:22:38;56.43;;;9.60;;
63801;SDS011;49949;43.060;25.624;2024-01-30T12:25:08;130.60;;;15.82;;
63801;SDS011;49949;43.060;25.624;2024-01-30T12:27:42;29.42;;;9.82;;
63801;SDS011;49949;43.060;25.624;2024-01-30T12:30:12;14.77;;;7.85;;
63801;SDS011;49949;43.060;25.624;2024-01-30T12:32:40;16.98;;;8.90;;
63801;SDS011;49949;43.060;25.624;2024-01-30T12:35:10;18.30;;;9.02;;
63801;SDS011;49949;43.060;25.624;2024-01-30T12:37:37;26.73;;;9.05;;
63801;SDS011;49949;43.060;25.624;2024-01-30T12:40:03;22.98;;;9.80;;
63801;SDS011;49949;43.060;25.624;2024-01-30T12:42:31;69.88;;;10.75;;
63801;SDS011;49949;43.060;25.624;2024-01-30T12:44:57;21.20;;;9.20;;
63801;SDS011;49949;43.060;25.624;2024-01-30T12:47:26;15.65;;;9.13;;
63801;SDS011;49949;43.060;25.624;2024-01-30T12:49:51;21.15;;;9.13;;
63801;SDS011;49949;43.060;25.624;2024-01-30T12:52:18;26.60;;;9.85;;
63801;SDS011;49949;43.060;25.624;2024-01-30T12:54:46;27.40;;;9.18;;
63801;SDS011;49949;43.060;25.624;2024-01-30T12:57:12;17.77;;;9.43;;
63801;SDS011;49949;43.060;25.624;2024-01-30T12:59:38;48.92;;;11.55;;
63801;SDS011;49949;43.060;25.624;2024-01-30T13:02:04;21.35;;;10.23;;
63801;SDS011;49949;43.060;25.624;2024-01-30T13:04:30;24.85;;;9.73;;
63801;SDS011;49949;43.060;25.624;2024-01-30T13:06:56;31.65;;;10.07;;
63801;SDS011;49949;43.060;25.624;2024-01-30T13:09:23;21.02;;;10.48;;
63801;SDS011;49949;43.060;25.624;2024-01-30T13:11:49;16.30;;;8.27;;
63801;SDS011;49949;43.060;25.624;2024-01-30T13:14:16;20.92;;;9.48;;
63801;SDS011;49949;43.060;25.624;2024-01-30T13:16:42;19.17;;;9.68;;
63801;SDS011;49949;43.060;25.624;2024-01-30T13:19:08;21.88;;;9.60;;
63801;SDS011;49949;43.060;25.624;2024-01-30T13:21:34;16.63;;;8.40;;
63801;SDS011;49949;43.060;25.624;2024-01-30T13:24:00;18.75;;;9.15;;
63801;SDS011;49949;43.060;25.624;2024-01-30T13:26:25;62.28;;;12.20;;
63801;SDS011;49949;43.060;25.624;2024-01-30T13:28:51;18.65;;;8.80;;
63801;SDS011;49949;43.060;25.624;2024-01-30T13:31:17;18.30;;;8.70;;
63801;SDS011;49949;43.060;25.624;2024-01-30T13:33:44;23.52;;;9.20;;
63801;SDS011;49949;43.060;25.624;2024-01-30T13:36:10;26.30;;;8.30;;
63801;SDS011;49949;43.060;25.624;2024-01-30T13:38:36;19.73;;;8.27;;
63801;SDS011;49949;43.060;25.624;2024-01-30T13:41:03;16.67;;;8.02;;
63801;SDS011;49949;43.060;25.624;2024-01-30T13:43:29;49.92;;;10.70;;
63801;SDS011;49949;43.060;25.624;2024-01-30T13:45:54;50.20;;;11.07;;
63801;SDS011;49949;43.060;25.624;2024-01-30T13:48:20;21.65;;;10.32;;
63801;SDS011;49949;43.060;25.624;2024-01-30T13:50:46;21.95;;;9.70;;
63801;SDS011;49949;43.060;25.624;2024-01-30T13:53:12;26.70;;;8.98;;
63801;SDS011;49949;43.060;25.624;2024-01-30T13:55:38;14.85;;;7.22;;
63801;SDS011;49949;43.060;25.624;2024-01-30T13:58:04;9.88;;;5.25;;
63801;SDS011;49949;43.060;25.624;2024-01-30T14:00:31;31.95;;;8.85;;
63801;SDS011;49949;43.060;25.624;2024-01-30T14:02:57;38.60;;;8.02;;
63801;SDS011;49949;43.060;25.624;2024-01-30T14:05:24;19.00;;;6.95;;
63801;SDS011;49949;43.060;25.624;2024-01-30T14:07:50;57.38;;;8.23;;
63801;SDS011;49949;43.060;25.624;2024-01-30T14:10:19;42.25;;;8.32;;
63801;SDS011;49949;43.060;25.624;2024-01-30T14:12:45;18.55;;;7.32;;